Time;durP1;ratioP1;P1;durP2;ratioP2;P2;SDS_P1;SDS_P2;PMS_P1;PMS_P2;Temp;Humidity;BMP_temperature;BMP_pressure;BME280_temperature;BME280_humidity;BME280_pressure;Samples;Min_cycle;Max_cycle;Signal;HPM_P1;HPM_P2
2023/08/07 00:01:46;;;;;;;7.45;3.50;;;;;;;10.99;100.00;99630.09;4933131;28;20483;-63
2023/08/07 00:04:14;;;;;;;11.52;3.30;;;;;;;11.07;100.00;99623.78;4933388;28;20056;-64
2023/08/07 00:06:40;;;;;;;8.00;3.65;;;;;;;11.11;100.00;99626.94;4933489;28;20111;-62
2023/08/07 00:09:07;;;;;;;11.75;3.53;;;;;;;11.08;100.00;99630.00;4933100;28;20099;-64
2023/08/07 00:11:33;;;;;;;6.10;3.28;;;;;;;11.10;100.00;99620.72;4932934;28;20465;-63
2023/08/07 00:14:00;;;;;;;9.20;4.00;;;;;;;11.10;100.00;99620.72;4933553;28;20047;-64
2023/08/07 00:16:27;;;;;;;5.90;3.70;;;;;;;11.08;100.00;99617.38;4933551;28;20043;-64
2023/08/07 00:18:55;;;;;;;5.57;4.10;;;;;;;11.14;100.00;99610.44;4932941;28;20415;-64
2023/08/07 00:21:23;;;;;;;6.63;3.53;;;;;;;11.17;100.00;99615.41;4932907;28;20408;-64
2023/08/07 00:23:50;;;;;;;10.23;3.78;;;;;;;11.10;100.00;99622.56;4932100;28;20415;-62
2023/08/07 00:26:16;;;;;;;9.05;4.40;;;;;;;11.12;100.00;99618.66;4932745;28;20087;-63
2023/08/07 00:28:43;;;;;;;5.82;3.40;;;;;;;11.11;100.00;99617.00;4932813;28;20055;-61
2023/08/07 00:31:10;;;;;;;7.22;3.85;;;;;;;11.11;100.00;99613.50;4932471;28;20087;-62
2023/08/07 00:33:37;;;;;;;9.07;3.75;;;;;;;11.08;100.00;99613.88;4932790;28;20048;-62
2023/08/07 00:36:04;;;;;;;12.10;4.15;;;;;;;11.09;100.00;99612.84;4932735;28;20087;-62
2023/08/07 00:38:31;;;;;;;9.23;4.72;;;;;;;11.08;100.00;99605.81;4932982;28;20488;-63
2023/08/07 00:40:59;;;;;;;9.18;4.15;;;;;;;11.09;100.00;99602.13;4932865;28;20043;-63
2023/08/07 00:43:26;;;;;;;16.67;5.35;;;;;;;11.10;100.00;99604.63;4932788;28;20467;-62
2023/08/07 00:45:53;;;;;;;11.00;4.20;;;;;;;11.07;100.00;99596.13;4932757;28;20464;-62
2023/08/07 00:48:20;;;;;;;10.20;4.50;;;;;;;11.07;100.00;99599.63;4932678;28;20062;-63
2023/08/07 00:50:48;;;;;;;5.72;4.30;;;;;;;11.08;100.00;99595.09;4932367;28;20051;-62
2023/08/07 00:53:15;;;;;;;14.43;5.05;;;;;;;11.06;100.00;99597.94;4932822;28;20107;-62
2023/08/07 00:55:42;;;;;;;8.13;4.35;;;;;;;11.08;100.00;99598.59;4933075;28;20043;-61
2023/08/07 00:58:09;;;;;;;15.35;4.78;;;;;;;11.08;100.00;99595.09;4932494;28;20076;-63
2023/08/07 01:00:37;;;;;;;7.70;4.53;;;;;;;11.10;100.00;99601.09;4932225;28;20108;-62
2023/08/07 01:03:07;;;;;;;11.00;5.13;;;;;;;11.10;100.00;99599.25;4932394;28;20052;-63
2023/08/07 01:09:21;;;;;;;10.55;4.07;;;;;;;11.12;100.00;99609.78;4931826;28;20464;-62
2023/08/07 01:12:00;;;;;;;8.38;4.75;;;;;;;11.13;100.00;99606.06;4932483;28;20134;-61
2023/08/07 01:14:38;;;;;;;9.05;4.45;;;;;;;11.07;100.00;99598.81;4932302;28;20116;-63
2023/08/07 01:17:11;;;;;;;7.93;4.47;;;;;;;11.03;100.00;99610.91;4931926;28;20467;-62
2023/08/07 01:19:38;;;;;;;9.00;3.95;;;;;;;11.07;100.00;99596.13;4932446;28;20468;-63
2023/08/07 01:22:06;;;;;;;7.70;4.18;;;;;;;11.01;100.00;99599.56;4932127;28;20056;-62
2023/08/07 01:24:33;;;;;;;12.98;4.72;;;;;;;11.02;100.00;99595.84;4932485;28;20102;-61
2023/08/07 01:27:18;;;;;;;7.72;4.85;;;;;;;10.98;100.00;99593.53;4932702;28;20736;-63
2023/08/07 01:30:05;;;;;;;7.90;4.18;;;;;;;10.97;100.00;99588.38;4931639;28;20047;-62
2023/08/07 01:33:07;;;;;;;11.10;4.63;;;;;;;10.99;100.00;99584.47;4932341;28;20054;-64
2023/08/07 01:35:40;;;;;;;8.55;3.97;;;;;;;10.97;100.00;99583.84;4933194;28;20131;-62
2023/08/07 01:38:07;;;;;;;10.13;4.55;;;;;;;10.96;100.00;99586.69;4935491;28;20719;-63
2023/08/07 01:40:36;;;;;;;12.82;4.93;;;;;;;11.03;100.00;99581.41;4935271;29;20047;-63
2023/08/07 01:43:02;;;;;;;10.68;5.40;;;;;;;11.03;100.00;99578.72;4935598;29;20496;-61
2023/08/07 01:45:29;;;;;;;10.65;4.65;;;;;;;11.04;100.00;99580.41;4935679;29;20496;-63
2023/08/07 01:47:56;;;;;;;9.48;4.53;;;;;;;11.01;100.00;99565.50;4935226;29;20048;-63
2023/08/07 01:50:24;;;;;;;8.13;4.90;;;;;;;10.93;100.00;99565.63;4934941;29;20059;-63
2023/08/07 01:52:50;;;;;;;13.48;4.95;;;;;;;10.88;100.00;99566.19;4935153;29;20543;-62
2023/08/07 01:55:18;;;;;;;10.60;4.90;;;;;;;10.87;100.00;99561.84;4934893;29;20098;-61
2023/08/07 01:57:45;;;;;;;13.57;4.72;;;;;;;10.95;100.00;99569.78;4935280;29;20492;-61
2023/08/07 02:00:12;;;;;;;9.90;4.90;;;;;;;10.98;100.00;99558.66;4935007;29;20522;-63
2023/08/07 02:02:38;;;;;;;11.88;4.80;;;;;;;10.92;100.00;99559.41;4935137;29;20071;-62
2023/08/07 02:05:05;;;;;;;10.68;4.97;;;;;;;10.86;100.00;99570.94;4934786;29;20052;-63
2023/08/07 02:07:32;;;;;;;9.13;4.88;;;;;;;11.05;100.00;99568.63;4935388;29;20051;-64
2023/08/07 02:09:58;;;;;;;10.82;5.50;;;;;;;11.05;100.00;99576.69;4934834;29;20099;-65
2023/08/07 02:12:26;;;;;;;14.98;5.50;;;;;;;11.01;100.00;99572.72;4934654;29;20055;-65
2023/08/07 02:14:53;;;;;;;11.00;6.47;;;;;;;11.02;100.00;99571.69;4934684;29;20048;-62
2023/08/07 02:17:24;;;;;;;12.07;6.78;;;;;;;10.99;100.00;99570.22;4934884;29;20405;-63
2023/08/07 02:19:50;;;;;;;15.60;7.07;;;;;;;10.96;100.00;99576.81;4934697;29;20104;-63
2023/08/07 02:22:17;;;;;;;16.60;9.68;;;;;;;10.96;100.00;99578.66;4934784;29;20055;-63
2023/08/07 02:24:44;;;;;;;17.70;10.85;;;;;;;10.95;100.00;99575.13;4934978;29;20131;-63
2023/08/07 02:27:10;;;;;;;15.73;10.40;;;;;;;10.99;100.00;99579.09;4934687;29;20048;-63
2023/08/07 02:29:37;;;;;;;23.08;11.68;;;;;;;10.99;100.00;99581.78;4934709;29;20460;-64
2023/08/07 02:32:04;;;;;;;17.75;10.90;;;;;;;11.01;100.00;99589.66;4934281;29;20393;-62
2023/08/07 02:34:31;;;;;;;14.95;9.85;;;;;;;10.96;100.00;99597.44;4935083;29;20051;-63
2023/08/07 02:36:59;;;;;;;15.50;10.98;;;;;;;10.98;100.00;99598.91;4934348;29;20103;-63
2023/08/07 02:39:25;;;;;;;16.80;11.20;;;;;;;11.01;100.00;99592.34;4934588;28;20465;-64
2023/08/07 02:41:52;;;;;;;15.23;9.68;;;;;;;11.10;100.00;99587.66;4934133;28;20099;-63
2023/08/07 02:44:19;;;;;;;17.73;10.20;;;;;;;11.13;100.00;99592.66;4934150;28;20472;-63
2023/08/07 02:46:46;;;;;;;14.18;9.57;;;;;;;11.18;100.00;99590.25;4933782;28;20156;-63
2023/08/07 02:49:14;;;;;;;19.10;9.75;;;;;;;11.12;100.00;99593.69;4934184;28;20376;-63
2023/08/07 02:51:40;;;;;;;17.40;10.25;;;;;;;11.17;100.00;99591.25;4934370;28;20078;-62
2023/08/07 02:54:07;;;;;;;16.08;8.70;;;;;;;11.14;100.00;99589.78;4934329;28;20055;-63
2023/08/07 02:56:33;;;;;;;14.30;9.02;;;;;;;11.15;100.00;99594.13;4934636;28;20048;-62
2023/08/07 02:59:02;;;;;;;11.48;7.60;;;;;;;11.17;100.00;99597.47;4934850;28;20122;-63
2023/08/07 03:01:29;;;;;;;13.57;7.88;;;;;;;11.21;100.00;99601.44;4934746;28;20047;-63
2023/08/07 03:03:55;;;;;;;12.40;7.15;;;;;;;11.24;100.00;99592.16;4934205;28;20107;-63
2023/08/07 03:06:22;;;;;;;21.23;7.00;;;;;;;11.24;100.00;99594.84;4934410;28;20522;-63
2023/08/07 03:08:50;;;;;;;14.20;6.85;;;;;;;11.21;100.00;99587.19;4933631;28;20126;-63
2023/08/07 03:11:17;;;;;;;12.15;7.32;;;;;;;11.21;100.00;99589.84;4934216;28;20055;-63
2023/08/07 03:13:44;;;;;;;10.15;6.78;;;;;;;11.21;100.00;99597.91;4934093;28;20496;-63
2023/08/07 03:16:11;;;;;;;15.30;7.53;;;;;;;11.21;100.00;99593.38;4933189;28;20067;-63
2023/08/07 03:18:38;;;;;;;14.82;7.10;;;;;;;11.16;100.00;99593.09;4933745;28;20518;-63
2023/08/07 03:21:04;;;;;;;15.88;6.95;;;;;;;11.17;100.00;99599.28;4933900;28;20055;-62
2023/08/07 03:23:31;;;;;;;16.35;7.93;;;;;;;11.22;100.00;99594.19;4934400;28;20047;-64
2023/08/07 03:26:09;;;;;;;15.30;7.35;;;;;;;11.17;100.00;99602.84;4933774;28;20043;-63
2023/08/07 03:28:39;;;;;;;12.88;7.05;;;;;;;11.16;100.00;99597.63;4933700;28;20063;-63
2023/08/07 03:31:06;;;;;;;10.88;7.30;;;;;;;11.15;100.00;99607.56;4932830;28;20062;-63
2023/08/07 03:33:32;;;;;;;17.20;7.30;;;;;;;11.21;100.00;99609.47;4934335;28;20051;-63
2023/08/07 03:35:59;;;;;;;12.80;7.00;;;;;;;11.23;100.00;99603.91;4933788;28;20047;-63
2023/08/07 03:38:25;;;;;;;16.73;7.57;;;;;;;11.17;100.00;99612.72;4933350;28;20103;-63
2023/08/07 03:40:52;;;;;;;17.40;8.30;;;;;;;11.17;100.00;99604.66;4933349;29;20456;-63
2023/08/07 03:43:18;;;;;;;9.45;6.88;;;;;;;11.19;100.00;99603.47;4933558;29;20051;-63
2023/08/07 03:45:45;;;;;;;22.85;8.27;;;;;;;11.16;100.00;99603.00;4933302;29;20048;-63
2023/08/07 03:48:11;;;;;;;17.42;7.13;;;;;;;11.16;100.00;99606.53;4916108;29;20576;-64
2023/08/07 03:50:38;;;;;;;19.20;8.05;;;;;;;11.26;100.00;99608.06;4933222;29;20044;-63
2023/08/07 03:53:07;;;;;;;14.82;8.18;;;;;;;11.21;100.00;99616.72;4933304;29;20055;-62
2023/08/07 03:55:34;;;;;;;19.67;7.80;;;;;;;11.24;100.00;99610.97;4932868;29;20055;-61
2023/08/07 03:58:01;;;;;;;19.67;8.45;;;;;;;11.26;100.00;99608.91;4933478;29;20048;-63
2023/08/07 04:00:27;;;;;;;16.05;6.97;;;;;;;11.28;100.00;99609.53;4932638;29;20047;-63
2023/08/07 04:02:54;;;;;;;13.10;8.13;;;;;;;11.27;100.00;99612.41;4932568;29;20500;-63
2023/08/07 04:05:21;;;;;;;15.48;7.53;;;;;;;11.28;100.00;99611.41;4933000;29;20055;-63
2023/08/07 04:07:47;;;;;;;9.20;7.50;;;;;;;11.30;100.00;99618.22;4933013;29;20048;-63
2023/08/07 04:10:14;;;;;;;17.50;7.70;;;;;;;11.31;100.00;99614.53;4932553;29;20134;-63
2023/08/07 04:12:40;;;;;;;15.27;7.30;;;;;;;11.30;100.00;99614.72;4915877;29;20107;-62
2023/08/07 04:15:08;;;;;;;11.63;7.18;;;;;;;11.36;100.00;99609.41;4932860;29;20079;-63
2023/08/07 04:17:36;;;;;;;14.18;7.35;;;;;;;11.34;100.00;99616.81;4933202;29;20043;-62
2023/08/07 04:20:03;;;;;;;10.70;6.35;;;;;;;11.37;100.00;99615.59;4933437;29;20052;-64
2023/08/07 04:22:30;;;;;;;11.00;6.90;;;;;;;11.41;100.00;99612.34;4933121;29;20099;-63
2023/08/07 04:24:57;;;;;;;14.02;7.18;;;;;;;11.41;100.00;99609.69;4932776;29;20052;-63
2023/08/07 04:27:23;;;;;;;11.73;6.68;;;;;;;11.44;100.00;99611.13;4933098;29;20099;-63
2023/08/07 04:29:50;;;;;;;11.82;6.43;;;;;;;11.41;100.00;99617.72;4931909;29;20071;-61
2023/08/07 04:32:16;;;;;;;12.48;6.30;;;;;;;11.53;100.00;99619.88;4932841;29;20107;-64
2023/08/07 04:34:43;;;;;;;11.88;6.05;;;;;;;11.51;100.00;99616.56;4932940;29;20111;-64
2023/08/07 04:37:09;;;;;;;12.25;5.93;;;;;;;11.53;100.00;99627.94;4932598;29;20138;-63
2023/08/07 04:39:36;;;;;;;12.38;5.45;;;;;;;11.57;100.00;99626.53;4932704;28;20139;-63
2023/08/07 04:42:03;;;;;;;14.73;5.95;;;;;;;11.58;100.00;99628.19;4933048;28;20111;-63
2023/08/07 04:44:30;;;;;;;9.52;5.53;;;;;;;11.62;100.00;99630.31;4933079;28;20048;-62
2023/08/07 04:46:56;;;;;;;8.85;5.45;;;;;;;11.67;100.00;99632.44;4932511;28;20044;-62
2023/08/07 04:49:23;;;;;;;11.93;6.55;;;;;;;11.71;100.00;99639.06;4932617;28;20139;-63
2023/08/07 04:51:50;;;;;;;14.20;6.47;;;;;;;11.65;100.00;99637.13;4931984;28;20496;-62
2023/08/07 04:54:17;;;;;;;11.88;5.43;;;;;;;11.66;100.00;99636.97;4932455;28;20436;-62
2023/08/07 04:56:44;;;;;;;14.98;5.30;;;;;;;11.65;100.00;99637.94;4932665;28;20047;-62
2023/08/07 04:59:11;;;;;;;9.25;4.68;;;;;;;11.60;100.00;99644.94;4932878;28;20051;-63
2023/08/07 05:01:38;;;;;;;15.48;5.00;;;;;;;11.73;100.00;99637.03;4932817;28;20480;-63
2023/08/07 05:04:05;;;;;;;13.00;5.00;;;;;;;11.90;100.00;99641.09;4932599;28;20083;-62
2023/08/07 05:06:32;;;;;;;11.23;4.25;;;;;;;12.00;100.00;99651.50;4933266;28;20410;-62
2023/08/07 05:08:58;;;;;;;9.30;4.10;;;;;;;12.05;100.00;99651.75;4932491;28;20051;-63
2023/08/07 05:11:25;;;;;;;9.38;4.03;;;;;;;12.22;100.00;99649.59;4935282;28;20051;-63
2023/08/07 05:13:51;;;;;;;7.60;3.53;;;;;;;12.36;100.00;99654.03;4935910;28;20078;-62
2023/08/07 05:16:18;;;;;;;10.50;4.00;;;;;;;12.25;100.00;99654.56;4936213;28;20071;-63
2023/08/07 05:18:45;;;;;;;13.27;4.15;;;;;;;12.45;100.00;99661.91;4936080;28;20058;-62
2023/08/07 05:21:15;;;;;;;6.97;3.65;;;;;;;12.31;100.00;99669.91;4936276;28;20056;-62
2023/08/07 05:23:41;;;;;;;9.00;3.67;;;;;;;12.38;100.00;99662.72;4936393;28;20159;-61
2023/08/07 05:26:08;;;;;;;11.23;4.05;;;;;;;12.38;100.00;99665.44;4935998;28;20107;-62
2023/08/07 05:28:34;;;;;;;10.07;3.45;;;;;;;12.44;100.00;99671.03;4935677;28;20047;-61
2023/08/07 05:31:01;;;;;;;9.23;3.80;;;;;;;12.52;100.00;99662.78;4943974;28;20090;-61
2023/08/07 05:33:27;;;;;;;6.55;3.20;;;;;;;12.36;100.00;99675.53;4954726;29;20471;-62
2023/08/07 05:35:56;;;;;;;6.05;3.20;;;;;;;12.32;100.00;99678.81;4954994;29;20047;-62
2023/08/07 05:38:23;;;;;;;7.68;3.60;;;;;;;12.34;100.00;99677.56;4934004;28;20048;-62
2023/08/07 05:40:49;;;;;;;7.60;3.03;;;;;;;12.28;100.00;99672.16;4935409;28;20055;-62
2023/08/07 05:43:17;;;;;;;11.38;3.83;;;;;;;12.45;100.00;99678.88;4935722;28;20127;-62
2023/08/07 05:45:46;;;;;;;9.27;3.63;;;;;;;12.43;100.00;99683.66;4935384;28;20052;-61
2023/08/07 05:48:12;;;;;;;7.57;3.55;;;;;;;12.27;100.00;99682.09;4935585;28;20043;-62
2023/08/07 05:50:39;;;;;;;7.38;3.45;;;;;;;12.36;100.00;99685.47;4935588;28;20221;-62
2023/08/07 05:53:05;;;;;;;7.25;4.05;;;;;;;12.48;100.00;99693.81;4935615;28;20476;-62
2023/08/07 05:55:32;;;;;;;7.13;3.55;;;;;;;12.54;100.00;99699.22;4935939;28;20064;-62
2023/08/07 05:57:58;;;;;;;7.90;3.28;;;;;;;12.44;100.00;99697.91;4935549;28;20099;-63
2023/08/07 06:00:25;;;;;;;11.32;3.67;;;;;;;12.73;100.00;99696.84;4935290;28;20120;-63
2023/08/07 06:02:52;;;;;;;7.78;3.75;;;;;;;12.78;100.00;99695.25;4935224;28;20051;-61
2023/08/07 06:05:19;;;;;;;8.15;4.05;;;;;;;12.77;100.00;99703.53;4935428;28;20060;-63
2023/08/07 06:07:45;;;;;;;7.03;3.03;;;;;;;12.77;100.00;99690.09;4935753;28;20446;-62
2023/08/07 06:10:12;;;;;;;9.50;4.32;;;;;;;12.91;100.00;99688.28;4935506;28;20047;-63
2023/08/07 06:12:38;;;;;;;7.10;3.22;;;;;;;12.97;100.00;99682.06;4935421;28;20052;-63
2023/08/07 06:15:06;;;;;;;12.35;3.30;;;;;;;13.13;100.00;99691.66;4934235;28;20056;-63
2023/08/07 06:17:33;;;;;;;6.38;3.00;;;;;;;13.20;100.00;99698.72;4935711;28;20099;-63
2023/08/07 06:20:00;;;;;;;5.57;3.00;;;;;;;13.27;100.00;99706.84;4935117;28;20050;-63
2023/08/07 06:22:26;;;;;;;9.02;2.95;;;;;;;13.39;100.00;99728.59;4934032;28;20212;-63
2023/08/07 06:24:53;;;;;;;8.80;3.00;;;;;;;13.38;100.00;99727.78;4934880;28;20469;-63
2023/08/07 06:27:21;;;;;;;6.70;3.22;;;;;;;13.48;100.00;99724.72;4935257;28;20055;-63
2023/08/07 06:29:47;;;;;;;6.25;2.65;;;;;;;13.58;100.00;99735.94;4934479;28;20067;-62
2023/08/07 06:32:14;;;;;;;5.97;2.60;;;;;;;13.56;100.00;99740.69;4933956;29;20103;-63
2023/08/07 06:34:41;;;;;;;6.43;2.72;;;;;;;13.56;100.00;99737.97;4934829;29;20079;-61
2023/08/07 06:37:07;;;;;;;8.18;2.80;;;;;;;13.62;100.00;99752.53;4934345;29;20564;-62
2023/08/07 06:39:34;;;;;;;5.45;2.85;;;;;;;13.68;100.00;99749.00;4934103;29;20063;-61
2023/08/07 06:42:00;;;;;;;7.50;2.60;;;;;;;13.81;100.00;99744.50;4934686;29;20111;-63
2023/08/07 06:44:27;;;;;;;5.95;2.50;;;;;;;13.90;100.00;99757.78;4934058;29;20054;-63
2023/08/07 06:46:53;;;;;;;4.88;2.33;;;;;;;13.86;100.00;99751.16;4933979;29;20145;-58
2023/08/07 06:49:20;;;;;;;8.13;2.25;;;;;;;13.99;100.00;99749.28;4934335;29;20468;-58
2023/08/07 06:51:46;;;;;;;4.75;2.28;;;;;;;14.03;100.00;99747.00;4934058;29;20055;-59
2023/08/07 06:54:13;;;;;;;5.70;2.05;;;;;;;14.15;100.00;99739.13;4933978;29;20516;-58
2023/08/07 06:56:42;;;;;;;7.00;2.38;;;;;;;14.16;100.00;99744.31;4934220;29;20047;-58
2023/08/07 06:59:08;;;;;;;5.50;2.17;;;;;;;14.19;100.00;99743.91;4933148;29;20083;-58
2023/08/07 07:01:36;;;;;;;5.10;2.15;;;;;;;14.29;100.00;99746.19;4933664;29;20056;-58
2023/08/07 07:04:03;;;;;;;3.05;1.73;;;;;;;14.44;100.00;99748.66;4934156;29;20083;-57
2023/08/07 07:06:30;;;;;;;7.25;2.20;;;;;;;14.58;100.00;99753.00;4933805;29;20066;-58
2023/08/07 07:08:57;;;;;;;6.53;2.38;;;;;;;14.63;100.00;99757.75;4933160;29;20520;-58
2023/08/07 07:11:24;;;;;;;3.85;1.80;;;;;;;14.48;100.00;99760.69;4933713;29;20063;-58
2023/08/07 07:13:52;;;;;;;10.98;2.15;;;;;;;14.73;100.00;99759.00;4933518;29;20052;-58
2023/08/07 07:16:21;;;;;;;10.70;2.03;;;;;;;14.76;100.00;99758.59;4916978;29;20499;-58
2023/08/07 07:18:50;;;;;;;6.57;1.83;;;;;;;14.83;100.00;99758.59;4933616;29;20058;-57
2023/08/07 07:21:17;;;;;;;5.80;2.63;;;;;;;14.79;100.00;99762.75;4934009;29;20064;-58
2023/08/07 07:23:44;;;;;;;8.52;2.13;;;;;;;14.94;100.00;99768.72;4916904;29;20043;-59
2023/08/07 07:26:10;;;;;;;8.55;2.72;;;;;;;15.07;100.00;99770.56;4933590;29;20189;-59
2023/08/07 07:28:37;;;;;;;8.00;2.80;;;;;;;14.94;100.00;99773.31;4932987;29;20063;-58
2023/08/07 07:31:04;;;;;;;10.32;2.33;;;;;;;15.08;100.00;99785.72;4933446;29;20126;-57
2023/08/07 07:33:31;;;;;;;11.43;1.88;;;;;;;14.98;100.00;99778.09;4932596;29;20118;-57
2023/08/07 07:35:57;;;;;;;6.60;2.05;;;;;;;14.93;100.00;99782.47;4933223;29;20397;-57
2023/08/07 07:38:26;;;;;;;5.28;2.20;;;;;;;15.08;100.00;99774.09;4933177;29;20457;-57
2023/08/07 07:40:56;;;;;;;4.60;1.85;;;;;;;15.07;100.00;99783.25;4932827;29;20044;-57
2023/08/07 07:43:23;;;;;;;3.50;1.60;;;;;;;15.17;100.00;99781.75;4933229;29;20397;-58
2023/08/07 07:45:50;;;;;;;5.43;1.73;;;;;;;15.22;100.00;99781.97;4932898;29;20049;-59
2023/08/07 07:48:17;;;;;;;3.92;1.80;;;;;;;15.19;100.00;99790.50;4933446;29;20055;-58
2023/08/07 07:50:43;;;;;;;6.70;1.70;;;;;;;15.01;100.00;99787.63;4932913;29;20508;-58
2023/08/07 07:53:10;;;;;;;4.90;1.80;;;;;;;15.28;100.00;99792.94;4933357;29;20459;-58
2023/08/07 07:55:37;;;;;;;11.75;1.80;;;;;;;15.12;100.00;99789.69;4933345;29;20055;-58
2023/08/07 07:58:04;;;;;;;11.32;2.03;;;;;;;15.14;100.00;99795.69;4932541;29;20074;-59
2023/08/07 08:00:31;;;;;;;8.65;1.65;;;;;;;15.20;100.00;99794.84;4933539;29;20496;-57
2023/08/07 08:02:57;;;;;;;7.78;2.10;;;;;;;15.15;100.00;99791.94;4932783;29;20078;-58
2023/08/07 08:05:24;;;;;;;6.28;2.15;;;;;;;15.17;100.00;99791.75;4932851;29;20550;-58
2023/08/07 08:07:50;;;;;;;5.85;2.50;;;;;;;15.25;100.00;99800.41;4932732;29;20055;-59
2023/08/07 08:10:17;;;;;;;7.70;2.92;;;;;;;15.36;100.00;99798.94;4933014;29;20055;-57
2023/08/07 08:12:43;;;;;;;8.02;2.88;;;;;;;15.38;100.00;99796.84;4932575;29;20071;-58
2023/08/07 08:15:11;;;;;;;6.22;3.17;;;;;;;15.47;100.00;99806.38;4933005;29;20058;-58
2023/08/07 08:17:38;;;;;;;11.07;3.83;;;;;;;15.46;100.00;99806.56;4932406;29;20096;-59
2023/08/07 08:20:06;;;;;;;7.38;2.53;;;;;;;15.17;100.00;99802.53;4932627;29;20139;-58
2023/08/07 08:22:33;;;;;;;19.63;6.65;;;;;;;15.32;100.00;99804.97;4933272;29;20056;-57
2023/08/07 08:25:00;;;;;;;13.48;5.35;;;;;;;15.17;100.00;99806.06;4915966;29;20054;-58
2023/08/07 08:27:27;;;;;;;9.35;3.95;;;;;;;15.04;100.00;99811.50;4932548;29;20106;-57
2023/08/07 08:29:53;;;;;;;7.22;3.15;;;;;;;15.07;100.00;99807.56;4932187;29;20551;-58
2023/08/07 08:32:20;;;;;;;7.10;2.28;;;;;;;15.00;100.00;99807.56;4932652;29;20055;-58
2023/08/07 08:34:49;;;;;;;8.00;2.80;;;;;;;15.29;100.00;99811.63;4932939;29;20115;-58
2023/08/07 08:37:15;;;;;;;5.80;2.25;;;;;;;15.53;100.00;99812.78;4932818;29;20054;-58
2023/08/07 08:39:42;;;;;;;9.50;3.17;;;;;;;15.49;100.00;99812.38;4932760;28;20456;-58
2023/08/07 08:42:12;;;;;;;8.80;2.70;;;;;;;15.69;100.00;99817.72;4932985;28;20367;-58
2023/08/07 08:44:40;;;;;;;4.90;2.17;;;;;;;15.70;100.00;99819.38;4932810;28;20069;-59
2023/08/07 08:47:08;;;;;;;6.97;2.42;;;;;;;15.76;100.00;99806.88;4937019;28;20086;-58
2023/08/07 08:49:43;;;;;;;4.75;1.80;;;;;;;15.79;100.00;99816.44;4936926;28;20416;-59
2023/08/07 08:52:10;;;;;;;6.45;2.05;;;;;;;15.73;100.00;99820.84;4936821;28;20048;-58
2023/08/07 08:54:37;;;;;;;7.70;2.28;;;;;;;15.65;100.00;99829.22;4936281;28;20094;-58
2023/08/07 08:57:04;;;;;;;10.32;2.50;;;;;;;15.40;100.00;99816.41;4937269;28;20102;-58
2023/08/07 08:59:31;;;;;;;9.80;2.90;;;;;;;15.67;100.00;99825.25;4936840;28;20040;-57
2023/08/07 09:01:58;;;;;;;7.85;2.20;;;;;;;15.95;100.00;99818.63;4936178;28;20047;-58
2023/08/07 09:04:24;;;;;;;6.88;2.25;;;;;;;16.19;100.00;99812.44;4935203;28;20150;-57
2023/08/07 09:06:51;;;;;;;8.10;2.22;;;;;;;16.55;100.00;99805.53;4934240;28;20107;-58
2023/08/07 09:09:20;;;;;;;5.13;2.20;;;;;;;16.63;100.00;99801.69;4935965;28;20130;-58
2023/08/07 09:11:47;;;;;;;7.32;1.58;;;;;;;16.80;100.00;99807.38;4935889;28;20054;-58
2023/08/07 09:14:22;;;;;;;5.88;2.63;;;;;;;16.67;100.00;99811.03;4936450;28;20082;-58
2023/08/07 09:16:49;;;;;;;5.30;2.90;;;;;;;15.93;100.00;99818.03;4936018;28;20495;-58
2023/08/07 09:19:16;;;;;;;9.68;2.95;;;;;;;15.45;100.00;99821.16;4936327;28;20433;-58
2023/08/07 09:21:42;;;;;;;9.55;2.25;;;;;;;14.96;100.00;99825.25;4936181;28;20044;-59
2023/08/07 09:24:09;;;;;;;7.78;2.47;;;;;;;15.19;100.00;99838.28;4936327;28;20091;-58
2023/08/07 09:26:36;;;;;;;8.90;2.58;;;;;;;15.29;100.00;99827.84;4936516;28;20055;-58
2023/08/07 09:29:02;;;;;;;9.95;2.45;;;;;;;15.44;100.00;99825.72;4936418;28;20059;-58
2023/08/07 09:31:30;;;;;;;6.75;2.47;;;;;;;15.74;100.00;99827.06;4935079;28;20043;-58
2023/08/07 09:34:04;;;;;;;5.35;2.20;;;;;;;15.56;100.00;99825.88;4934611;28;20043;-58
2023/08/07 09:36:31;;;;;;;6.93;2.30;;;;;;;15.63;100.00;99834.81;4935976;28;20070;-58
2023/08/07 09:39:02;;;;;;;5.13;1.58;;;;;;;15.78;100.00;99839.97;4935453;28;20408;-58
2023/08/07 09:41:34;;;;;;;5.45;2.40;;;;;;;15.76;100.00;99830.41;4935843;29;20078;-62
2023/08/07 09:44:08;;;;;;;5.95;2.25;;;;;;;15.94;100.00;99830.50;4933454;29;20141;-62
2023/08/07 09:46:44;;;;;;;5.22;2.13;;;;;;;15.92;100.00;99846.13;4935831;29;20044;-61
2023/08/07 09:49:11;;;;;;;7.68;2.47;;;;;;;15.68;100.00;99837.72;4915953;29;20056;-61
2023/08/07 09:51:46;;;;;;;5.90;2.35;;;;;;;15.96;100.00;99839.25;4934492;29;20055;-62
2023/08/07 09:54:13;;;;;;;6.88;2.60;;;;;;;16.12;100.00;99840.56;4935167;29;20051;-61
2023/08/07 09:56:40;;;;;;;6.03;2.10;;;;;;;16.42;100.00;99847.03;4918392;29;20452;-60
2023/08/07 09:59:07;;;;;;;7.03;2.47;;;;;;;16.37;100.00;99852.28;4935747;29;20500;-61
2023/08/07 10:01:38;;;;;;;7.93;2.70;;;;;;;16.31;100.00;99852.34;4936087;29;20555;-61
2023/08/07 10:04:06;;;;;;;6.22;2.15;;;;;;;16.04;100.00;99852.50;4935192;29;20047;-59
2023/08/07 10:06:33;;;;;;;7.43;2.13;;;;;;;16.34;100.00;99852.72;4935951;29;20044;-61
2023/08/07 10:09:01;;;;;;;6.78;2.40;;;;;;;16.31;100.00;99850.44;4935068;29;20553;-61
2023/08/07 10:11:28;;;;;;;9.00;3.13;;;;;;;16.57;100.00;99862.16;4935140;29;20492;-61
2023/08/07 10:13:57;;;;;;;6.60;1.92;;;;;;;16.54;100.00;99855.31;4934335;29;20135;-61
2023/08/07 10:16:25;;;;;;;4.13;1.95;;;;;;;16.41;100.00;99853.50;4935246;29;20047;-62
2023/08/07 10:18:52;;;;;;;6.90;1.67;;;;;;;16.55;100.00;99851.56;4935349;29;20052;-60
2023/08/07 10:21:21;;;;;;;4.15;1.65;;;;;;;16.52;100.00;99851.16;4935473;29;20059;-61
2023/08/07 10:23:52;;;;;;;4.32;2.00;;;;;;;16.41;100.00;99849.97;4935726;29;20107;-61
2023/08/07 10:26:21;;;;;;;6.28;1.50;;;;;;;16.37;100.00;99852.28;4935732;29;20071;-61
2023/08/07 10:28:51;;;;;;;6.72;1.83;;;;;;;16.27;100.00;99848.41;4934889;29;20074;-61
2023/08/07 10:31:20;;;;;;;7.20;2.60;;;;;;;16.18;100.00;99859.47;4934987;29;20071;-61
2023/08/07 10:33:48;;;;;;;7.82;3.75;;;;;;;16.36;100.00;99850.59;4934560;29;20075;-61
2023/08/07 10:36:16;;;;;;;5.80;2.20;;;;;;;16.42;100.00;99846.19;4935215;29;20048;-61
2023/08/07 10:38:43;;;;;;;3.50;1.70;;;;;;;16.27;100.00;99856.53;4934412;28;20054;-61
2023/08/07 10:41:12;;;;;;;3.30;1.65;;;;;;;16.23;100.00;99847.16;4934183;28;20098;-61
2023/08/07 10:43:41;;;;;;;4.50;1.65;;;;;;;16.07;100.00;99852.06;4934362;28;20051;-61
2023/08/07 10:46:12;;;;;;;6.10;1.50;;;;;;;16.10;100.00;99857.03;4934185;28;20079;-61
2023/08/07 10:48:48;;;;;;;6.35;1.50;;;;;;;16.01;100.00;99852.09;4934596;28;20048;-61
2023/08/07 10:51:17;;;;;;;6.30;1.33;;;;;;;16.05;100.00;99851.44;4934342;28;20051;-61
2023/08/07 10:53:46;;;;;;;11.30;1.83;;;;;;;16.10;100.00;99848.94;4934410;28;20357;-61
2023/08/07 10:56:35;;;;;;;4.05;1.40;;;;;;;15.99;100.00;99849.63;4934059;28;20431;-61
2023/08/07 10:59:12;;;;;;;5.45;1.33;;;;;;;16.00;100.00;99851.28;4934269;28;20145;-61
2023/08/07 11:01:41;;;;;;;4.90;1.45;;;;;;;15.86;100.00;99860.50;4934263;28;20404;-62
2023/08/07 11:04:15;;;;;;;3.17;1.20;;;;;;;15.79;100.00;99859.72;4934368;28;20424;-62
2023/08/07 11:06:44;;;;;;;5.38;1.60;;;;;;;15.61;100.00;99866.63;4934388;28;20517;-61
2023/08/07 11:09:11;;;;;;;6.22;1.90;;;;;;;15.50;100.00;99861.91;4933883;28;20051;-62
2023/08/07 11:11:40;;;;;;;5.00;1.30;;;;;;;15.53;100.00;99876.84;4934075;28;20048;-61
2023/08/07 11:14:15;;;;;;;5.88;1.33;;;;;;;15.72;100.00;99870.56;4933953;28;20056;-61
2023/08/07 11:16:43;;;;;;;2.78;1.40;;;;;;;15.87;100.00;99867.56;4934259;28;20463;-61
2023/08/07 11:19:12;;;;;;;5.57;1.60;;;;;;;15.94;100.00;99862.94;4933466;28;20119;-61
2023/08/07 11:21:40;;;;;;;5.30;1.23;;;;;;;16.17;100.00;99862.41;4934052;28;20464;-62
2023/08/07 11:24:07;;;;;;;4.88;1.55;;;;;;;16.15;100.00;99859.91;4933974;28;20071;-62
2023/08/07 11:26:34;;;;;;;4.20;2.15;;;;;;;16.11;100.00;99857.88;4934111;28;20096;-62
2023/08/07 11:29:01;;;;;;;6.43;1.80;;;;;;;16.23;100.00;99863.41;4933809;28;20048;-62